sensor_id;sensor_type;location;lat;lon;timestamp;P1;durP1;ratioP1;P2;durP2;ratioP2
41343;SDS011;27089;50.022;7.604;2023-08-06T00:01:03;5.80;;;2.90;;
41343;SDS011;27089;50.022;7.604;2023-08-06T00:03:30;6.37;;;3.17;;
41343;SDS011;27089;50.022;7.604;2023-08-06T00:05:57;7.63;;;3.30;;
41343;SDS011;27089;50.022;7.604;2023-08-06T00:08:24;4.03;;;2.77;;
41343;SDS011;27089;50.022;7.604;2023-08-06T00:10:50;9.30;;;3.10;;
41343;SDS011;27089;50.022;7.604;2023-08-06T00:13:17;3.97;;;3.03;;
41343;SDS011;27089;50.022;7.604;2023-08-06T00:15:46;5.40;;;3.03;;
41343;SDS011;27089;50.022;7.604;2023-08-06T00:18:13;4.30;;;2.83;;
41343;SDS011;27089;50.022;7.604;2023-08-06T00:20:40;4.63;;;3.20;;
41343;SDS011;27089;50.022;7.604;2023-08-06T00:23:07;7.87;;;3.10;;
41343;SDS011;27089;50.022;7.604;2023-08-06T00:25:34;6.10;;;3.13;;
41343;SDS011;27089;50.022;7.604;2023-08-06T00:28:01;5.73;;;2.90;;
41343;SDS011;27089;50.022;7.604;2023-08-06T00:30:28;4.63;;;3.00;;
41343;SDS011;27089;50.022;7.604;2023-08-06T00:32:56;5.83;;;2.87;;
41343;SDS011;27089;50.022;7.604;2023-08-06T00:35:23;4.57;;;2.93;;
41343;SDS011;27089;50.022;7.604;2023-08-06T00:37:50;4.03;;;3.00;;
41343;SDS011;27089;50.022;7.604;2023-08-06T00:40:19;3.83;;;2.40;;
41343;SDS011;27089;50.022;7.604;2023-08-06T00:42:47;3.33;;;2.57;;
41343;SDS011;27089;50.022;7.604;2023-08-06T00:45:14;3.67;;;2.90;;
41343;SDS011;27089;50.022;7.604;2023-08-06T00:47:41;3.77;;;2.73;;
41343;SDS011;27089;50.022;7.604;2023-08-06T00:50:10;3.47;;;2.50;;
41343;SDS011;27089;50.022;7.604;2023-08-06T00:52:37;4.93;;;2.83;;
41343;SDS011;27089;50.022;7.604;2023-08-06T00:55:04;4.50;;;2.50;;
41343;SDS011;27089;50.022;7.604;2023-08-06T00:57:32;3.40;;;2.50;;
41343;SDS011;27089;50.022;7.604;2023-08-06T01:00:00;4.07;;;2.43;;
41343;SDS011;27089;50.022;7.604;2023-08-06T01:02:27;4.67;;;2.90;;
41343;SDS011;27089;50.022;7.604;2023-08-06T01:04:54;4.03;;;2.50;;
41343;SDS011;27089;50.022;7.604;2023-08-06T01:07:25;4.93;;;2.67;;
41343;SDS011;27089;50.022;7.604;2023-08-06T01:10:08;3.50;;;2.90;;
41343;SDS011;27089;50.022;7.604;2023-08-06T01:12:45;3.80;;;2.60;;
41343;SDS011;27089;50.022;7.604;2023-08-06T01:15:18;4.97;;;3.00;;
41343;SDS011;27089;50.022;7.604;2023-08-06T01:17:49;4.63;;;2.23;;
41343;SDS011;27089;50.022;7.604;2023-08-06T01:20:16;3.77;;;2.53;;
41343;SDS011;27089;50.022;7.604;2023-08-06T01:22:45;4.23;;;3.10;;
41343;SDS011;27089;50.022;7.604;2023-08-06T01:25:12;4.93;;;2.57;;
41343;SDS011;27089;50.022;7.604;2023-08-06T01:27:44;4.43;;;2.63;;
41343;SDS011;27089;50.022;7.604;2023-08-06T01:30:15;5.77;;;2.70;;
41343;SDS011;27089;50.022;7.604;2023-08-06T01:32:44;5.40;;;2.70;;
41343;SDS011;27089;50.022;7.604;2023-08-06T01:35:15;3.47;;;2.70;;
41343;SDS011;27089;50.022;7.604;2023-08-06T01:37:47;3.70;;;2.40;;
41343;SDS011;27089;50.022;7.604;2023-08-06T01:40:14;6.40;;;3.30;;
41343;SDS011;27089;50.022;7.604;2023-08-06T01:42:41;4.70;;;2.50;;
41343;SDS011;27089;50.022;7.604;2023-08-06T01:45:08;4.70;;;2.77;;
41343;SDS011;27089;50.022;7.604;2023-08-06T01:47:36;3.23;;;2.60;;
41343;SDS011;27089;50.022;7.604;2023-08-06T01:50:04;3.70;;;2.40;;
41343;SDS011;27089;50.022;7.604;2023-08-06T01:52:31;3.53;;;2.60;;
41343;SDS011;27089;50.022;7.604;2023-08-06T01:54:59;5.37;;;2.87;;
41343;SDS011;27089;50.022;7.604;2023-08-06T01:57:26;4.13;;;2.70;;
41343;SDS011;27089;50.022;7.604;2023-08-06T01:59:54;5.63;;;2.73;;
41343;SDS011;27089;50.022;7.604;2023-08-06T02:02:21;5.67;;;2.70;;
41343;SDS011;27089;50.022;7.604;2023-08-06T02:04:48;4.20;;;2.90;;
41343;SDS011;27089;50.022;7.604;2023-08-06T02:07:15;3.80;;;2.60;;
41343;SDS011;27089;50.022;7.604;2023-08-06T02:09:42;5.93;;;2.87;;
41343;SDS011;27089;50.022;7.604;2023-08-06T02:12:11;4.37;;;3.13;;
41343;SDS011;27089;50.022;7.604;2023-08-06T02:14:38;6.20;;;3.00;;
41343;SDS011;27089;50.022;7.604;2023-08-06T02:17:05;5.13;;;3.20;;
41343;SDS011;27089;50.022;7.604;2023-08-06T02:19:33;3.57;;;3.17;;
41343;SDS011;27089;50.022;7.604;2023-08-06T02:22:00;6.33;;;3.10;;
41343;SDS011;27089;50.022;7.604;2023-08-06T02:24:27;4.47;;;3.47;;
41343;SDS011;27089;50.022;7.604;2023-08-06T02:26:54;3.97;;;3.00;;
41343;SDS011;27089;50.022;7.604;2023-08-06T02:29:23;4.83;;;3.30;;
41343;SDS011;27089;50.022;7.604;2023-08-06T02:31:49;6.83;;;3.43;;
41343;SDS011;27089;50.022;7.604;2023-08-06T02:34:17;3.70;;;2.97;;
41343;SDS011;27089;50.022;7.604;2023-08-06T02:36:44;6.27;;;3.10;;
41343;SDS011;27089;50.022;7.604;2023-08-06T02:39:11;3.50;;;2.90;;
41343;SDS011;27089;50.022;7.604;2023-08-06T02:41:37;6.00;;;3.03;;
41343;SDS011;27089;50.022;7.604;2023-08-06T02:44:04;6.77;;;2.47;;
41343;SDS011;27089;50.022;7.604;2023-08-06T02:46:33;4.57;;;2.67;;
41343;SDS011;27089;50.022;7.604;2023-08-06T02:49:00;7.20;;;2.80;;
41343;SDS011;27089;50.022;7.604;2023-08-06T02:51:27;5.70;;;2.70;;
41343;SDS011;27089;50.022;7.604;2023-08-06T02:53:54;3.87;;;2.60;;
41343;SDS011;27089;50.022;7.604;2023-08-06T02:56:21;5.63;;;2.87;;
41343;SDS011;27089;50.022;7.604;2023-08-06T02:58:48;4.47;;;2.80;;
41343;SDS011;27089;50.022;7.604;2023-08-06T03:01:15;4.37;;;2.60;;
41343;SDS011;27089;50.022;7.604;2023-08-06T03:03:43;4.47;;;2.63;;
41343;SDS011;27089;50.022;7.604;2023-08-06T03:06:10;6.17;;;2.80;;
41343;SDS011;27089;50.022;7.604;2023-08-06T03:08:37;6.10;;;2.50;;
41343;SDS011;27089;50.022;7.604;2023-08-06T03:11:04;5.60;;;2.40;;
41343;SDS011;27089;50.022;7.604;2023-08-06T03:13:31;4.83;;;2.67;;
41343;SDS011;27089;50.022;7.604;2023-08-06T03:15:58;5.20;;;2.83;;
41343;SDS011;27089;50.022;7.604;2023-08-06T03:18:26;4.53;;;2.27;;
41343;SDS011;27089;50.022;7.604;2023-08-06T03:20:55;5.37;;;2.30;;
41343;SDS011;27089;50.022;7.604;2023-08-06T03:23:22;4.27;;;2.37;;
41343;SDS011;27089;50.022;7.604;2023-08-06T03:25:49;4.47;;;2.27;;
41343;SDS011;27089;50.022;7.604;2023-08-06T03:28:16;3.80;;;2.13;;
41343;SDS011;27089;50.022;7.604;2023-08-06T03:30:43;4.60;;;2.20;;
41343;SDS011;27089;50.022;7.604;2023-08-06T03:33:10;3.37;;;2.00;;
41343;SDS011;27089;50.022;7.604;2023-08-06T03:35:37;5.23;;;2.00;;
41343;SDS011;27089;50.022;7.604;2023-08-06T03:38:05;3.97;;;1.80;;
41343;SDS011;27089;50.022;7.604;2023-08-06T03:40:34;5.37;;;1.90;;
41343;SDS011;27089;50.022;7.604;2023-08-06T03:43:01;3.03;;;1.50;;
41343;SDS011;27089;50.022;7.604;2023-08-06T03:45:28;2.47;;;1.40;;
41343;SDS011;27089;50.022;7.604;2023-08-06T03:47:55;3.10;;;1.30;;
41343;SDS011;27089;50.022;7.604;2023-08-06T03:50:22;1.57;;;1.33;;
41343;SDS011;27089;50.022;7.604;2023-08-06T03:52:49;2.33;;;1.40;;
41343;SDS011;27089;50.022;7.604;2023-08-06T03:55:18;2.07;;;1.33;;
41343;SDS011;27089;50.022;7.604;2023-08-06T03:57:45;1.87;;;1.40;;
41343;SDS011;27089;50.022;7.604;2023-08-06T04:00:12;1.70;;;1.17;;
41343;SDS011;27089;50.022;7.604;2023-08-06T04:02:39;2.03;;;1.13;;
41343;SDS011;27089;50.022;7.604;2023-08-06T04:05:06;1.90;;;1.20;;
41343;SDS011;27089;50.022;7.604;2023-08-06T04:07:33;2.97;;;1.30;;
41343;SDS011;27089;50.022;7.604;2023-08-06T04:10:01;1.27;;;1.10;;
41343;SDS011;27089;50.022;7.604;2023-08-06T04:12:30;1.53;;;1.00;;
41343;SDS011;27089;50.022;7.604;2023-08-06T04:14:58;4.17;;;1.10;;
41343;SDS011;27089;50.022;7.604;2023-08-06T04:17:25;2.90;;;2.13;;
41343;SDS011;27089;50.022;7.604;2023-08-06T04:19:53;19.17;;;12.40;;
41343;SDS011;27089;50.022;7.604;2023-08-06T04:22:23;1.67;;;1.07;;
41343;SDS011;27089;50.022;7.604;2023-08-06T04:24:50;0.87;;;0.70;;
41343;SDS011;27089;50.022;7.604;2023-08-06T04:27:18;0.70;;;0.50;;
41343;SDS011;27089;50.022;7.604;2023-08-06T04:29:47;1.33;;;0.50;;
41343;SDS011;27089;50.022;7.604;2023-08-06T04:32:14;0.30;;;0.30;;
41343;SDS011;27089;50.022;7.604;2023-08-06T04:34:41;2.93;;;0.40;;
41343;SDS011;27089;50.022;7.604;2023-08-06T04:37:08;1.97;;;1.10;;
41343;SDS011;27089;50.022;7.604;2023-08-06T04:39:35;3.93;;;0.77;;
41343;SDS011;27089;50.022;7.604;2023-08-06T04:42:02;0.70;;;0.40;;
41343;SDS011;27089;50.022;7.604;2023-08-06T04:44:29;1.20;;;0.80;;
41343;SDS011;27089;50.022;7.604;2023-08-06T04:46:58;0.83;;;0.40;;
41343;SDS011;27089;50.022;7.604;2023-08-06T04:49:25;0.93;;;0.63;;
41343;SDS011;27089;50.022;7.604;2023-08-06T04:51:52;1.27;;;0.30;;
41343;SDS011;27089;50.022;7.604;2023-08-06T04:54:19;0.93;;;0.43;;
41343;SDS011;27089;50.022;7.604;2023-08-06T04:56:46;0.60;;;0.40;;
41343;SDS011;27089;50.022;7.604;2023-08-06T04:59:13;0.50;;;0.20;;
41343;SDS011;27089;50.022;7.604;2023-08-06T05:01:40;0.60;;;0.30;;
41343;SDS011;27089;50.022;7.604;2023-08-06T05:04:08;2.53;;;0.30;;
41343;SDS011;27089;50.022;7.604;2023-08-06T05:06:35;0.67;;;0.20;;
41343;SDS011;27089;50.022;7.604;2023-08-06T05:09:03;1.27;;;0.20;;
41343;SDS011;27089;50.022;7.604;2023-08-06T05:11:31;0.20;;;0.20;;
41343;SDS011;27089;50.022;7.604;2023-08-06T05:13:58;0.20;;;0.20;;
41343;SDS011;27089;50.022;7.604;2023-08-06T05:16:25;1.00;;;0.10;;
41343;SDS011;27089;50.022;7.604;2023-08-06T05:18:52;0.23;;;0.17;;
41343;SDS011;27089;50.022;7.604;2023-08-06T05:21:20;0.47;;;0.10;;
41343;SDS011;27089;50.022;7.604;2023-08-06T05:23:47;0.30;;;0.20;;
41343;SDS011;27089;50.022;7.604;2023-08-06T05:26:14;0.20;;;0.20;;
41343;SDS011;27089;50.022;7.604;2023-08-06T05:28:43;0.40;;;0.20;;
41343;SDS011;27089;50.022;7.604;2023-08-06T05:31:11;0.20;;;0.10;;
41343;SDS011;27089;50.022;7.604;2023-08-06T05:33:38;0.40;;;0.10;;
41343;SDS011;27089;50.022;7.604;2023-08-06T05:36:05;0.60;;;0.30;;
41343;SDS011;27089;50.022;7.604;2023-08-06T05:38:33;0.40;;;0.10;;
41343;SDS011;27089;50.022;7.604;2023-08-06T05:41:00;0.60;;;0.30;;
41343;SDS011;27089;50.022;7.604;2023-08-06T05:43:27;0.67;;;0.20;;
41343;SDS011;27089;50.022;7.604;2023-08-06T05:45:55;0.77;;;0.30;;
41343;SDS011;27089;50.022;7.604;2023-08-06T05:48:22;0.20;;;0.10;;
41343;SDS011;27089;50.022;7.604;2023-08-06T05:50:50;0.13;;;0.13;;
41343;SDS011;27089;50.022;7.604;2023-08-06T05:53:17;1.80;;;0.40;;
41343;SDS011;27089;50.022;7.604;2023-08-06T05:55:46;0.63;;;0.20;;
41343;SDS011;27089;50.022;7.604;2023-08-06T05:58:13;0.57;;;0.20;;
41343;SDS011;27089;50.022;7.604;2023-08-06T06:00:41;0.90;;;0.30;;
41343;SDS011;27089;50.022;7.604;2023-08-06T06:03:08;0.40;;;0.30;;
41343;SDS011;27089;50.022;7.604;2023-08-06T06:05:37;1.23;;;0.40;;
41343;SDS011;27089;50.022;7.604;2023-08-06T06:08:04;1.10;;;0.33;;
41343;SDS011;27089;50.022;7.604;2023-08-06T06:10:31;1.67;;;0.40;;
41343;SDS011;27089;50.022;7.604;2023-08-06T06:13:00;0.30;;;0.20;;
41343;SDS011;27089;50.022;7.604;2023-08-06T06:15:27;0.40;;;0.30;;
41343;SDS011;27089;50.022;7.604;2023-08-06T06:17:54;0.20;;;0.20;;
41343;SDS011;27089;50.022;7.604;2023-08-06T06:20:21;0.37;;;0.27;;
41343;SDS011;27089;50.022;7.604;2023-08-06T06:22:48;0.70;;;0.30;;
41343;SDS011;27089;50.022;7.604;2023-08-06T06:25:15;0.30;;;0.30;;
41343;SDS011;27089;50.022;7.604;2023-08-06T06:27:42;1.17;;;0.30;;
41343;SDS011;27089;50.022;7.604;2023-08-06T06:30:11;1.37;;;0.30;;
41343;SDS011;27089;50.022;7.604;2023-08-06T06:32:39;2.27;;;0.73;;
41343;SDS011;27089;50.022;7.604;2023-08-06T06:35:07;0.33;;;0.30;;
41343;SDS011;27089;50.022;7.604;2023-08-06T06:37:34;0.33;;;0.30;;
41343;SDS011;27089;50.022;7.604;2023-08-06T06:40:01;1.60;;;0.40;;
41343;SDS011;27089;50.022;7.604;2023-08-06T06:42:29;3.57;;;2.33;;
41343;SDS011;27089;50.022;7.604;2023-08-06T06:44:56;0.70;;;0.70;;
41343;SDS011;27089;50.022;7.604;2023-08-06T06:47:24;0.70;;;0.70;;
41343;SDS011;27089;50.022;7.604;2023-08-06T06:49:51;1.37;;;0.50;;
41343;SDS011;27089;50.022;7.604;2023-08-06T06:52:19;0.80;;;0.80;;
41343;SDS011;27089;50.022;7.604;2023-08-06T06:54:45;1.30;;;1.20;;
41343;SDS011;27089;50.022;7.604;2023-08-06T06:57:13;1.40;;;0.67;;
41343;SDS011;27089;50.022;7.604;2023-08-06T06:59:40;0.50;;;0.50;;
41343;SDS011;27089;50.022;7.604;2023-08-06T07:02:07;5.40;;;2.60;;
41343;SDS011;27089;50.022;7.604;2023-08-06T07:04:35;1.00;;;0.50;;
41343;SDS011;27089;50.022;7.604;2023-08-06T07:07:02;0.37;;;0.37;;
41343;SDS011;27089;50.022;7.604;2023-08-06T07:09:29;0.40;;;0.40;;
41343;SDS011;27089;50.022;7.604;2023-08-06T07:11:56;0.63;;;0.50;;
41343;SDS011;27089;50.022;7.604;2023-08-06T07:14:24;0.30;;;0.30;;
41343;SDS011;27089;50.022;7.604;2023-08-06T07:16:52;0.33;;;0.30;;
41343;SDS011;27089;50.022;7.604;2023-08-06T07:19:19;0.82;;;0.20;;
41343;SDS011;27089;50.022;7.604;2023-08-06T07:21:47;1.63;;;0.43;;
41343;SDS011;27089;50.022;7.604;2023-08-06T07:24:14;0.85;;;0.30;;
41343;SDS011;27089;50.022;7.604;2023-08-06T07:26:41;0.93;;;0.50;;
41343;SDS011;27089;50.022;7.604;2023-08-06T07:29:08;0.88;;;0.47;;
41343;SDS011;27089;50.022;7.604;2023-08-06T07:31:35;2.35;;;0.70;;
41343;SDS011;27089;50.022;7.604;2023-08-06T07:34:02;0.55;;;0.40;;
41343;SDS011;27089;50.022;7.604;2023-08-06T07:36:29;0.60;;;0.50;;
41343;SDS011;27089;50.022;7.604;2023-08-06T07:38:58;0.88;;;0.52;;
41343;SDS011;27089;50.022;7.604;2023-08-06T07:41:25;1.63;;;1.10;;
41343;SDS011;27089;50.022;7.604;2023-08-06T07:43:52;0.70;;;0.50;;
41343;SDS011;27089;50.022;7.604;2023-08-06T07:46:19;1.90;;;0.60;;
41343;SDS011;27089;50.022;7.604;2023-08-06T07:48:46;1.03;;;0.50;;
41343;SDS011;27089;50.022;7.604;2023-08-06T07:51:13;3.97;;;1.67;;
41343;SDS011;27089;50.022;7.604;2023-08-06T07:53:40;4.03;;;2.70;;
41343;SDS011;27089;50.022;7.604;2023-08-06T07:56:08;2.30;;;2.10;;
41343;SDS011;27089;50.022;7.604;2023-08-06T07:58:35;2.50;;;1.67;;
41343;SDS011;27089;50.022;7.604;2023-08-06T08:01:02;1.83;;;1.10;;
41343;SDS011;27089;50.022;7.604;2023-08-06T08:03:29;1.23;;;1.00;;
41343;SDS011;27089;50.022;7.604;2023-08-06T08:05:56;1.30;;;0.57;;
41343;SDS011;27089;50.022;7.604;2023-08-06T08:08:23;1.57;;;0.83;;
41343;SDS011;27089;50.022;7.604;2023-08-06T08:10:50;0.77;;;0.50;;
41343;SDS011;27089;50.022;7.604;2023-08-06T08:13:19;1.90;;;0.53;;
41343;SDS011;27089;50.022;7.604;2023-08-06T08:15:46;1.10;;;0.73;;
41343;SDS011;27089;50.022;7.604;2023-08-06T08:18:13;1.47;;;1.30;;
41343;SDS011;27089;50.022;7.604;2023-08-06T08:20:40;1.60;;;0.90;;
41343;SDS011;27089;50.022;7.604;2023-08-06T08:23:07;1.20;;;0.80;;
41343;SDS011;27089;50.022;7.604;2023-08-06T08:25:34;1.47;;;0.67;;
41343;SDS011;27089;50.022;7.604;2023-08-06T08:28:01;0.60;;;0.60;;
41343;SDS011;27089;50.022;7.604;2023-08-06T08:30:29;0.60;;;0.60;;
41343;SDS011;27089;50.022;7.604;2023-08-06T08:32:56;1.33;;;0.73;;
41343;SDS011;27089;50.022;7.604;2023-08-06T08:35:23;0.73;;;0.40;;
41343;SDS011;27089;50.022;7.604;2023-08-06T08:37:50;3.00;;;0.70;;
41343;SDS011;27089;50.022;7.604;2023-08-06T08:40:17;0.40;;;0.40;;
41343;SDS011;27089;50.022;7.604;2023-08-06T08:42:44;1.23;;;0.50;;
41343;SDS011;27089;50.022;7.604;2023-08-06T08:45:12;0.47;;;0.40;;
41343;SDS011;27089;50.022;7.604;2023-08-06T08:47:41;0.53;;;0.53;;
41343;SDS011;27089;50.022;7.604;2023-08-06T08:50:09;0.97;;;0.50;;
41343;SDS011;27089;50.022;7.604;2023-08-06T08:52:38;1.03;;;0.53;;
41343;SDS011;27089;50.022;7.604;2023-08-06T08:55:06;0.37;;;0.37;;
41343;SDS011;27089;50.022;7.604;2023-08-06T08:57:34;1.33;;;0.50;;
41343;SDS011;27089;50.022;7.604;2023-08-06T09:00:01;0.57;;;0.30;;
41343;SDS011;27089;50.022;7.604;2023-08-06T09:02:29;0.40;;;0.40;;
41343;SDS011;27089;50.022;7.604;2023-08-06T09:05:00;0.83;;;0.70;;
41343;SDS011;27089;50.022;7.604;2023-08-06T09:07:30;1.53;;;0.50;;
41343;SDS011;27089;50.022;7.604;2023-08-06T09:10:02;0.47;;;0.47;;
41343;SDS011;27089;50.022;7.604;2023-08-06T09:12:30;0.43;;;0.40;;
41343;SDS011;27089;50.022;7.604;2023-08-06T09:14:57;0.30;;;0.30;;
41343;SDS011;27089;50.022;7.604;2023-08-06T09:17:24;1.33;;;0.40;;
41343;SDS011;27089;50.022;7.604;2023-08-06T09:19:53;0.53;;;0.23;;
41343;SDS011;27089;50.022;7.604;2023-08-06T09:22:22;0.80;;;0.20;;
41343;SDS011;27089;50.022;7.604;2023-08-06T09:24:49;2.13;;;0.30;;
41343;SDS011;27089;50.022;7.604;2023-08-06T09:27:16;0.20;;;0.20;;
41343;SDS011;27089;50.022;7.604;2023-08-06T09:29:43;0.20;;;0.17;;
41343;SDS011;27089;50.022;7.604;2023-08-06T09:32:11;0.65;;;0.13;;
41343;SDS011;27089;50.022;7.604;2023-08-06T09:34:39;0.20;;;0.20;;
41343;SDS011;27089;50.022;7.604;2023-08-06T09:37:08;1.33;;;0.32;;
41343;SDS011;27089;50.022;7.604;2023-08-06T09:39:38;0.22;;;0.22;;
41343;SDS011;27089;50.022;7.604;2023-08-06T09:42:06;0.40;;;0.40;;
41343;SDS011;27089;50.022;7.604;2023-08-06T09:44:33;0.38;;;0.38;;
41343;SDS011;27089;50.022;7.604;2023-08-06T09:47:01;0.57;;;0.20;;
41343;SDS011;27089;50.022;7.604;2023-08-06T09:49:40;0.20;;;0.20;;
41343;SDS011;27089;50.022;7.604;2023-08-06T09:52:09;1.23;;;0.10;;
41343;SDS011;27089;50.022;7.604;2023-08-06T09:54:39;0.90;;;0.20;;
41343;SDS011;27089;50.022;7.604;2023-08-06T09:57:06;2.17;;;0.37;;
41343;SDS011;27089;50.022;7.604;2023-08-06T09:59:35;0.20;;;0.20;;
41343;SDS011;27089;50.022;7.604;2023-08-06T10:02:03;0.40;;;0.30;;
41343;SDS011;27089;50.022;7.604;2023-08-06T10:04:38;1.37;;;0.30;;
41343;SDS011;27089;50.022;7.604;2023-08-06T10:07:06;0.20;;;0.20;;
41343;SDS011;27089;50.022;7.604;2023-08-06T10:09:33;0.93;;;0.33;;
41343;SDS011;27089;50.022;7.604;2023-08-06T10:12:01;0.60;;;0.20;;
41343;SDS011;27089;50.022;7.604;2023-08-06T10:14:30;1.63;;;0.20;;
41343;SDS011;27089;50.022;7.604;2023-08-06T10:16:59;0.80;;;0.30;;
41343;SDS011;27089;50.022;7.604;2023-08-06T10:19:27;0.20;;;0.20;;
41343;SDS011;27089;50.022;7.604;2023-08-06T10:22:09;0.13;;;0.10;;
41343;SDS011;27089;50.022;7.604;2023-08-06T10:24:45;0.77;;;0.30;;
41343;SDS011;27089;50.022;7.604;2023-08-06T10:27:29;0.30;;;0.20;;
41343;SDS011;27089;50.022;7.604;2023-08-06T10:32:52;0.40;;;0.30;;
41343;SDS011;27089;50.022;7.604;2023-08-06T10:35:28;0.33;;;0.20;;
41343;SDS011;27089;50.022;7.604;2023-08-06T10:38:05;0.30;;;0.30;;
41343;SDS011;27089;50.022;7.604;2023-08-06T10:40:33;1.13;;;0.43;;
41343;SDS011;27089;50.022;7.604;2023-08-06T10:43:03;1.50;;;0.30;;
41343;SDS011;27089;50.022;7.604;2023-08-06T10:45:34;0.50;;;0.43;;
41343;SDS011;27089;50.022;7.604;2023-08-06T10:48:01;1.70;;;0.30;;
41343;SDS011;27089;50.022;7.604;2023-08-06T10:50:29;0.70;;;0.40;;
41343;SDS011;27089;50.022;7.604;2023-08-06T10:52:56;1.60;;;0.60;;
41343;SDS011;27089;50.022;7.604;2023-08-06T10:55:24;0.40;;;0.40;;
41343;SDS011;27089;50.022;7.604;2023-08-06T10:57:53;1.07;;;0.40;;
41343;SDS011;27089;50.022;7.604;2023-08-06T11:00:22;1.80;;;0.33;;
41343;SDS011;27089;50.022;7.604;2023-08-06T11:02:50;0.90;;;0.50;;
41343;SDS011;27089;50.022;7.604;2023-08-06T11:05:18;0.60;;;0.40;;
41343;SDS011;27089;50.022;7.604;2023-08-06T11:07:45;0.60;;;0.50;;
41343;SDS011;27089;50.022;7.604;2023-08-06T11:10:13;0.67;;;0.53;;
41343;SDS011;27089;50.022;7.604;2023-08-06T11:12:40;0.80;;;0.60;;
41343;SDS011;27089;50.022;7.604;2023-08-06T11:15:07;2.63;;;0.70;;
41343;SDS011;27089;50.022;7.604;2023-08-06T11:17:36;0.93;;;0.60;;
41343;SDS011;27089;50.022;7.604;2023-08-06T11:20:06;1.30;;;0.70;;
41343;SDS011;27089;50.022;7.604;2023-08-06T11:22:33;0.50;;;0.40;;
41343;SDS011;27089;50.022;7.604;2023-08-06T11:25:02;0.53;;;0.53;;
41343;SDS011;27089;50.022;7.604;2023-08-06T11:27:29;2.00;;;0.70;;
41343;SDS011;27089;50.022;7.604;2023-08-06T11:29:56;0.90;;;0.53;;
41343;SDS011;27089;50.022;7.604;2023-08-06T11:32:23;1.03;;;0.70;;
41343;SDS011;27089;50.022;7.604;2023-08-06T11:34:52;1.60;;;0.80;;
41343;SDS011;27089;50.022;7.604;2023-08-06T11:37:20;0.80;;;0.80;;
41343;SDS011;27089;50.022;7.604;2023-08-06T11:39:49;0.73;;;0.67;;
41343;SDS011;27089;50.022;7.604;2023-08-06T11:42:16;0.90;;;0.70;;
41343;SDS011;27089;50.022;7.604;2023-08-06T11:44:43;1.33;;;0.70;;
41343;SDS011;27089;50.022;7.604;2023-08-06T11:47:14;1.70;;;0.60;;
41343;SDS011;27089;50.022;7.604;2023-08-06T11:49:43;2.03;;;0.70;;
41343;SDS011;27089;50.022;7.604;2023-08-06T11:52:16;1.10;;;0.83;;
41343;SDS011;27089;50.022;7.604;2023-08-06T11:54:46;0.73;;;0.60;;
41343;SDS011;27089;50.022;7.604;2023-08-06T11:57:14;1.30;;;0.80;;
41343;SDS011;27089;50.022;7.604;2023-08-06T11:59:42;2.33;;;1.20;;
41343;SDS011;27089;50.022;7.604;2023-08-06T12:02:09;2.63;;;0.73;;
41343;SDS011;27089;50.022;7.604;2023-08-06T12:07:31;1.10;;;0.70;;
41343;SDS011;27089;50.022;7.604;2023-08-06T12:09:59;1.53;;;0.87;;
41343;SDS011;27089;50.022;7.604;2023-08-06T12:12:26;1.73;;;0.80;;
41343;SDS011;27089;50.022;7.604;2023-08-06T12:14:53;2.60;;;0.90;;
41343;SDS011;27089;50.022;7.604;2023-08-06T12:17:21;1.67;;;0.70;;
41343;SDS011;27089;50.022;7.604;2023-08-06T12:19:48;1.43;;;1.00;;
41343;SDS011;27089;50.022;7.604;2023-08-06T12:22:15;1.77;;;0.87;;
41343;SDS011;27089;50.022;7.604;2023-08-06T12:24:45;2.40;;;0.90;;
41343;SDS011;27089;50.022;7.604;2023-08-06T12:27:13;1.63;;;0.67;;
41343;SDS011;27089;50.022;7.604;2023-08-06T12:29:41;1.77;;;0.80;;
41343;SDS011;27089;50.022;7.604;2023-08-06T12:32:09;1.00;;;0.73;;
41343;SDS011;27089;50.022;7.604;2023-08-06T12:34:37;2.67;;;0.90;;
41343;SDS011;27089;50.022;7.604;2023-08-06T12:37:04;4.50;;;0.93;;
41343;SDS011;27089;50.022;7.604;2023-08-06T12:39:32;1.87;;;1.07;;
41343;SDS011;27089;50.022;7.604;2023-08-06T12:42:01;1.73;;;0.90;;
41343;SDS011;27089;50.022;7.604;2023-08-06T12:44:28;1.20;;;1.00;;
41343;SDS011;27089;50.022;7.604;2023-08-06T12:46:55;1.80;;;0.90;;
41343;SDS011;27089;50.022;7.604;2023-08-06T12:49:23;0.83;;;0.57;;
41343;SDS011;27089;50.022;7.604;2023-08-06T12:51:51;0.67;;;0.60;;
41343;SDS011;27089;50.022;7.604;2023-08-06T12:54:19;1.73;;;0.80;;
41343;SDS011;27089;50.022;7.604;2023-08-06T12:56:46;1.93;;;0.90;;
41343;SDS011;27089;50.022;7.604;2023-08-06T12:59:15;1.47;;;0.83;;
41343;SDS011;27089;50.022;7.604;2023-08-06T13:01:43;1.30;;;0.60;;
41343;SDS011;27089;50.022;7.604;2023-08-06T13:04:10;1.20;;;0.80;;
41343;SDS011;27089;50.022;7.604;2023-08-06T13:06:38;1.53;;;0.60;;
41343;SDS011;27089;50.022;7.604;2023-08-06T13:09:05;1.33;;;0.60;;
41343;SDS011;27089;50.022;7.604;2023-08-06T13:11:33;1.43;;;0.50;;
41343;SDS011;27089;50.022;7.604;2023-08-06T13:14:03;1.43;;;0.43;;
41343;SDS011;27089;50.022;7.604;2023-08-06T13:16:33;1.77;;;0.50;;
41343;SDS011;27089;50.022;7.604;2023-08-06T13:19:01;1.20;;;0.47;;
41343;SDS011;27089;50.022;7.604;2023-08-06T13:21:31;1.33;;;0.83;;
41343;SDS011;27089;50.022;7.604;2023-08-06T13:23:59;1.97;;;0.50;;
41343;SDS011;27089;50.022;7.604;2023-08-06T13:26:26;1.50;;;1.30;;
41343;SDS011;27089;50.022;7.604;2023-08-06T13:28:54;14.00;;;7.47;;
41343;SDS011;27089;50.022;7.604;2023-08-06T13:31:21;2.93;;;2.23;;
41343;SDS011;27089;50.022;7.604;2023-08-06T13:33:49;2.20;;;1.47;;
41343;SDS011;27089;50.022;7.604;2023-08-06T13:36:16;2.53;;;2.00;;
41343;SDS011;27089;50.022;7.604;2023-08-06T13:38:43;2.47;;;1.60;;
41343;SDS011;27089;50.022;7.604;2023-08-06T13:41:10;3.57;;;2.10;;
41343;SDS011;27089;50.022;7.604;2023-08-06T13:43:38;1.87;;;1.20;;
41343;SDS011;27089;50.022;7.604;2023-08-06T13:46:05;0.90;;;0.60;;
41343;SDS011;27089;50.022;7.604;2023-08-06T13:48:32;1.60;;;0.60;;
41343;SDS011;27089;50.022;7.604;2023-08-06T13:51:00;1.83;;;0.53;;
41343;SDS011;27089;50.022;7.604;2023-08-06T13:53:27;0.40;;;0.40;;
41343;SDS011;27089;50.022;7.604;2023-08-06T13:55:55;2.37;;;0.40;;
41343;SDS011;27089;50.022;7.604;2023-08-06T13:58:22;1.13;;;0.37;;
41343;SDS011;27089;50.022;7.604;2023-08-06T14:00:50;0.33;;;0.33;;
41343;SDS011;27089;50.022;7.604;2023-08-06T14:03:19;0.57;;;0.40;;
41343;SDS011;27089;50.022;7.604;2023-08-06T14:05:46;1.67;;;0.40;;
41343;SDS011;27089;50.022;7.604;2023-08-06T14:08:14;0.60;;;0.30;;
41343;SDS011;27089;50.022;7.604;2023-08-06T14:10:43;0.50;;;0.30;;
41343;SDS011;27089;50.022;7.604;2023-08-06T14:13:10;0.37;;;0.30;;
41343;SDS011;27089;50.022;7.604;2023-08-06T14:15:37;1.20;;;0.60;;
41343;SDS011;27089;50.022;7.604;2023-08-06T14:18:05;0.70;;;0.30;;
41343;SDS011;27089;50.022;7.604;2023-08-06T14:20:33;2.33;;;0.40;;
41343;SDS011;27089;50.022;7.604;2023-08-06T14:23:00;0.60;;;0.40;;
41343;SDS011;27089;50.022;7.604;2023-08-06T14:25:28;0.50;;;0.30;;
41343;SDS011;27089;50.022;7.604;2023-08-06T14:27:55;0.93;;;0.50;;
41343;SDS011;27089;50.022;7.604;2023-08-06T14:30:22;1.20;;;0.50;;
41343;SDS011;27089;50.022;7.604;2023-08-06T14:32:50;0.70;;;0.20;;
41343;SDS011;27089;50.022;7.604;2023-08-06T14:35:16;0.23;;;0.20;;
41343;SDS011;27089;50.022;7.604;2023-08-06T14:37:43;0.60;;;0.60;;
41343;SDS011;27089;50.022;7.604;2023-08-06T14:40:11;0.70;;;0.50;;
41343;SDS011;27089;50.022;7.604;2023-08-06T14:42:39;1.97;;;0.40;;
41343;SDS011;27089;50.022;7.604;2023-08-06T14:45:06;1.67;;;0.40;;
41343;SDS011;27089;50.022;7.604;2023-08-06T14:47:33;0.83;;;0.40;;
41343;SDS011;27089;50.022;7.604;2023-08-06T14:50:00;0.80;;;0.27;;
41343;SDS011;27089;50.022;7.604;2023-08-06T14:52:27;1.17;;;0.40;;
41343;SDS011;27089;50.022;7.604;2023-08-06T14:54:55;0.20;;;0.20;;
41343;SDS011;27089;50.022;7.604;2023-08-06T14:57:22;0.50;;;0.30;;